Gasport, New York
Current Conditions -  °F | °C
As of 1:54 AM on Sunday 23 Nov 2014 (Local Time) from KBUF Reporting Station
Haze Haze  
Wind Chill: 34°   Ceiling: 3100
Heat Index: 41°   Visibility: 6mi
Dew Point: 38°   Wind: 12mph
Humidity: 89%   Direction: 200°SSW
Pressure: 30"   Gusts: NA
Location:  43.2°N, 78.58°W
Report Text: KBUF 230654Z 20010KT 6SM BR SCT023 OVC031 05/03 A3000 RMK AO2 SLP164 RAE0558 P0001 T00500033
Loading
Personal Weather Stations






























Interactive Weather Map New forecast layout! Learn more

10-Day Weather Forecast

Advertisements
Track Severe Weather on mobile